Time;durP1;ratioP1;P1;durP2;ratioP2;P2;SDS_P1;SDS_P2;PMS_P1;PMS_P2;Temp;Humidity;BMP_temperature;BMP_pressure;BME280_temperature;BME280_humidity;BME280_pressure;Samples;Min_cycle;Max_cycle;Signal;HPM_P1;HPM_P2
2022/06/16 06:33:50;;;;;;;1.60;0.98;;;;;;;20.77;45.57;100476.94;1751514;80;21182;-39
2022/06/16 06:36:17;;;;;;;4.60;1.30;;;;;;;20.84;44.86;100473.11;1706493;82;21654;-43
2022/06/16 06:38:46;;;;;;;6.75;1.37;;;;;;;20.95;44.99;100473.55;1690475;83;21979;-40
2022/06/16 06:41:14;;;;;;;0.95;0.90;;;;;;;21.07;44.25;100472.19;1733040;82;21092;-44
2022/06/16 06:43:43;;;;;;;3.10;1.00;;;;;;;21.15;43.33;100475.39;1659319;85;21072;-44
2022/06/16 06:46:30;;;;;;;4.22;1.37;;;;;;;21.15;43.27;100472.73;1635950;84;21430;-44
2022/06/16 06:49:04;;;;;;;2.80;1.25;;;;;;;21.18;43.55;100472.62;1655737;83;21075;-39
2022/06/16 06:51:33;;;;;;;2.83;1.07;;;;;;;21.31;43.57;100471.67;1645037;86;21048;-49
2022/06/16 06:54:01;;;;;;;2.05;1.00;;;;;;;21.46;43.20;100472.38;1649037;86;21124;-50
2022/06/16 06:56:29;;;;;;;0.95;0.70;;;;;;;21.53;42.40;100466.33;1636086;86;21119;-44
2022/06/16 06:58:58;;;;;;;10.25;1.25;;;;;;;21.51;42.68;100463.27;1665251;85;21916;-44
2022/06/16 07:01:28;;;;;;;1.90;0.78;;;;;;;21.61;43.46;100469.52;1630377;87;21081;-48
2022/06/16 07:04:16;;;;;;;3.77;0.82;;;;;;;21.82;43.01;100464.59;1635231;88;21156;-43
2022/06/16 07:06:46;;;;;;;4.50;0.90;;;;;;;21.96;42.78;100459.98;1618878;88;21548;-48
2022/06/16 07:09:14;;;;;;;1.42;0.70;;;;;;;22.01;41.04;100472.16;1651711;86;21215;-44
2022/06/16 07:11:43;;;;;;;1.62;0.90;;;;;;;21.93;40.00;100464.14;1629346;86;21593;-48
2022/06/16 07:14:16;;;;;;;1.77;0.93;;;;;;;21.86;41.25;100462.65;1661887;84;21075;-43
2022/06/16 07:16:44;;;;;;;2.90;1.00;;;;;;;21.81;41.23;100461.55;1618368;88;21605;-43
2022/06/16 07:19:11;;;;;;;2.00;0.70;;;;;;;21.79;41.31;100460.72;1621092;86;21077;-51
2022/06/16 07:21:40;;;;;;;1.32;0.80;;;;;;;21.81;41.81;100462.88;1695378;84;21761;-49
2022/06/16 07:24:13;;;;;;;3.77;1.30;;;;;;;21.93;41.15;100460.14;1666835;84;21127;-51
2022/06/16 07:27:07;;;;;;;3.22;1.10;;;;;;;21.96;40.86;100459.98;1618348;86;21063;-50
2022/06/16 07:30:13;;;;;;;3.10;1.10;;;;;;;21.94;40.73;100460.53;1657168;83;21092;-50
2022/06/16 07:32:38;;;;;;;1.40;0.95;;;;;;;21.95;40.58;100455.59;1675796;85;21033;-43
2022/06/16 07:35:07;;;;;;;2.50;0.85;;;;;;;22.08;40.88;100458.10;1640837;86;21064;-49
2022/06/16 07:37:35;;;;;;;1.52;0.70;;;;;;;22.24;40.45;100452.52;1606847;88;21073;-48
2022/06/16 07:40:04;;;;;;;3.62;1.10;;;;;;;22.35;39.99;100448.03;1672296;84;21488;-48
2022/06/16 07:42:33;;;;;;;2.47;1.07;;;;;;;22.45;39.74;100451.14;1696350;84;21020;-43
2022/06/16 07:45:00;;;;;;;2.05;1.00;;;;;;;22.53;39.61;100449.83;1673167;84;21100;-43
2022/06/16 07:47:27;;;;;;;5.60;1.45;;;;;;;22.50;39.74;100449.99;1699324;84;21674;-48
2022/06/16 07:49:55;;;;;;;2.80;0.85;;;;;;;22.41;39.85;100450.41;1699372;84;21111;-48
2022/06/16 07:52:33;;;;;;;5.60;1.30;;;;;;;22.41;39.89;100454.41;1699613;84;21534;-48
2022/06/16 07:55:00;;;;;;;2.50;0.80;;;;;;;22.50;40.17;100451.33;1699451;84;21155;-43
2022/06/16 07:57:30;;;;;;;1.40;0.98;;;;;;;22.71;39.63;100453.90;1699372;84;21520;-45
2022/06/16 07:59:58;;;;;;;6.92;1.00;;;;;;;22.84;38.92;100459.92;1699378;84;21107;-44
2022/06/16 08:02:40;;;;;;;1.52;0.90;;;;;;;22.88;38.99;100453.13;1673632;84;21064;-50
2022/06/16 08:05:19;;;;;;;1.87;0.80;;;;;;;22.92;38.95;100452.91;1698389;84;21096;-50
2022/06/16 08:07:49;;;;;;;2.42;1.17;;;;;;;22.95;39.14;100459.41;1697730;84;21107;-43
2022/06/16 08:10:19;;;;;;;5.33;1.42;;;;;;;22.79;38.41;100456.61;1698740;84;21623;-48
2022/06/16 08:12:49;;;;;;;1.55;0.90;;;;;;;22.48;38.10;100456.31;1697093;84;20997;-42
2022/06/16 08:15:16;;;;;;;3.27;1.00;;;;;;;22.16;39.15;100461.34;1674088;84;21108;-44
2022/06/16 08:17:50;;;;;;;3.95;0.88;;;;;;;21.92;39.61;100459.75;1699809;84;21140;-42
2022/06/16 08:20:23;;;;;;;3.45;1.00;;;;;;;21.74;40.62;100456.95;1684691;84;21092;-44
2022/06/16 08:22:50;;;;;;;4.37;1.00;;;;;;;21.63;41.16;100461.88;1686671;84;21050;-48
2022/06/16 08:25:19;;;;;;;2.33;1.22;;;;;;;21.58;41.74;100467.00;1690739;85;21086;-46
2022/06/16 08:27:47;;;;;;;3.90;1.10;;;;;;;21.53;41.51;100464.53;1644503;85;21010;-49
2022/06/16 08:30:44;;;;;;;2.37;1.42;;;;;;;21.50;41.05;100464.64;1690757;83;21611;-43
2022/06/16 08:36:59;;;;;;;13.32;2.40;;;;;;;21.82;40.18;100460.61;1682584;84;21159;-43
2022/06/16 08:39:54;;;;;;;14.63;1.80;;;;;;;22.23;37.82;100444.13;1673879;81;21095;-48
2022/06/16 08:42:29;;;;;;;1.15;1.00;;;;;;;22.52;38.24;100445.92;1703180;84;21018;-43
2022/06/16 08:45:21;;;;;;;1.25;0.72;;;;;;;22.80;37.77;100434.80;1687672;85;21040;-49
2022/06/16 08:48:32;;;;;;;2.30;0.70;;;;;;;23.12;37.52;100439.05;1687521;85;21079;-44
2022/06/16 08:51:26;;;;;;;1.00;0.70;;;;;;;23.37;36.42;100440.91;1686975;85;21196;-43
2022/06/16 08:54:32;;;;;;;1.85;0.80;;;;;;;23.61;36.51;100438.78;1687007;85;21095;-44
2022/06/16 08:57:07;;;;;;;3.58;1.40;;;;;;;23.69;36.25;100437.94;1677520;85;21033;-49
2022/06/16 09:00:09;;;;;;;0.75;0.68;;;;;;;23.54;35.63;100442.69;1656638;85;21106;-43
2022/06/16 09:03:04;;;;;;;5.20;1.10;;;;;;;23.39;35.70;100443.02;1645861;86;21044;-43
2022/06/16 09:06:16;;;;;;;8.58;2.20;;;;;;;23.16;35.75;100445.50;1680067;85;21251;-43
2022/06/16 09:09:12;;;;;;;1.50;1.00;;;;;;;22.96;36.10;100446.94;1540303;90;21217;-44
2022/06/16 09:11:59;;;;;;;2.02;0.90;;;;;;;22.84;35.87;100445.26;1455023;97;21118;-48
2022/06/16 09:18:07;;;;;;;2.10;0.70;;;;;;;22.65;36.17;100441.72;1507196;93;21064;-43
2022/06/16 09:20:49;;;;;;;2.05;0.75;;;;;;;22.69;36.49;100440.65;1495278;94;21132;-51
2022/06/16 09:23:48;;;;;;;2.92;1.00;;;;;;;22.82;35.95;100434.25;1496113;94;21110;-49
2022/06/16 09:26:38;;;;;;;4.95;0.80;;;;;;;22.98;35.87;100428.60;1511047;95;21117;-44
2022/06/16 09:29:36;;;;;;;1.00;0.75;;;;;;;23.24;35.38;100421.09;1513063;93;21122;-43
2022/06/16 09:32:32;;;;;;;2.55;0.80;;;;;;;23.51;35.59;100425.03;1499436;94;21053;-50
2022/06/16 09:35:10;;;;;;;2.30;0.90;;;;;;;23.60;35.29;100415.70;1502900;94;21705;-49
2022/06/16 09:38:08;;;;;;;2.10;0.80;;;;;;;23.73;34.65;100418.62;1512245;95;21440;-50
2022/06/16 09:40:40;;;;;;;1.67;0.98;;;;;;;23.87;34.20;100418.73;1513101;93;21179;-50
2022/06/16 09:43:23;;;;;;;1.42;0.68;;;;;;;23.88;33.27;100419.98;1501689;90;21514;-48
2022/06/16 09:46:07;;;;;;;7.70;0.75;;;;;;;23.71;34.16;100413.33;1600664;89;21133;-48
2022/06/16 09:48:53;;;;;;;4.12;0.90;;;;;;;23.57;34.01;100407.83;1599985;88;21043;-49
2022/06/16 09:51:40;;;;;;;1.02;0.70;;;;;;;23.63;34.75;100415.55;1603889;89;21043;-48
2022/06/16 09:54:20;;;;;;;0.88;0.60;;;;;;;23.83;34.73;100409.15;1625404;86;21051;-43
2022/06/16 09:57:05;;;;;;;1.32;0.93;;;;;;;24.08;34.62;100412.25;1604001;89;21015;-50
2022/06/16 09:59:54;;;;;;;2.80;0.78;;;;;;;24.28;33.69;100410.30;1601123;88;21586;-49
2022/06/16 10:02:36;;;;;;;3.70;1.10;;;;;;;24.46;33.35;100412.45;1579326;88;21173;-43
2022/06/16 10:05:16;;;;;;;3.77;0.95;;;;;;;24.56;33.55;100405.66;1618311;87;21654;-42
2022/06/16 10:07:57;;;;;;;1.77;0.80;;;;;;;24.67;33.42;100405.91;1604800;87;21151;-49
2022/06/16 10:10:42;;;;;;;5.72;1.25;;;;;;;24.71;31.67;100406.13;1600816;86;21103;-43
2022/06/16 10:13:50;;;;;;;1.32;0.90;;;;;;;24.71;32.84;100414.64;1575627;90;21127;-43
2022/06/16 10:16:21;;;;;;;1.75;0.70;;;;;;;24.55;31.90;100406.61;1600422;89;21119;-49
2022/06/16 10:18:57;;;;;;;0.80;0.60;;;;;;;24.18;33.53;100411.30;1590863;84;21550;-48
2022/06/16 10:21:28;;;;;;;2.27;0.82;;;;;;;23.94;34.87;100412.59;1670625;82;21031;-48
2022/06/16 10:23:58;;;;;;;1.57;0.75;;;;;;;23.55;33.53;100411.06;1733630;83;21032;-48
2022/06/16 10:26:32;;;;;;;0.88;0.78;;;;;;;23.55;33.53;100411.06;1708338;84;21050;-49
2022/06/16 10:29:29;;;;;;;1.72;0.80;;;;;;;23.36;34.54;100410.65;1717531;82;21114;-43
2022/06/16 10:31:57;;;;;;;2.00;0.80;;;;;;;23.21;34.77;100411.45;1735293;83;21082;-44
2022/06/16 10:34:45;;;;;;;2.92;1.10;;;;;;;23.16;34.52;100416.63;1716513;83;21615;-44
2022/06/16 10:37:27;;;;;;;2.33;1.12;;;;;;;23.13;34.55;100412.28;1729241;82;21510;-43
2022/06/16 10:40:03;;;;;;;4.65;0.98;;;;;;;23.09;34.55;100411.59;1711758;84;21086;-43
2022/06/16 10:42:51;;;;;;;1.55;0.82;;;;;;;23.10;34.85;100412.45;1711939;84;21020;-48
2022/06/16 10:45:28;;;;;;;6.60;0.90;;;;;;;23.12;35.36;100415.90;1711752;84;21118;-44
2022/06/16 10:48:03;;;;;;;1.90;0.75;;;;;;;23.09;35.19;100413.41;1684608;84;21070;-43
2022/06/16 10:50:39;;;;;;;1.75;0.82;;;;;;;23.08;35.88;100417.02;1712050;84;21118;-48
2022/06/16 10:53:21;;;;;;;1.52;0.82;;;;;;;23.07;36.10;100414.78;1729396;82;21041;-48
2022/06/16 10:56:16;;;;;;;1.25;0.70;;;;;;;23.09;35.80;100415.59;1662975;86;21118;-43
2022/06/16 10:59:21;;;;;;;1.32;0.85;;;;;;;23.14;35.56;100414.04;1709471;83;21090;-47
2022/06/16 11:02:02;;;;;;;;;;;;;;;23.21;36.79;100412.78;1714387;84;20971;-43
2022/06/16 11:04:43;;;;;;;0.75;0.70;;;;;;;23.21;35.65;100411.92;1711135;84;20121;-49
2022/06/16 11:07:30;;;;;;;1.85;0.80;;;;;;;23.21;35.65;100411.92;1712835;82;21071;-43
2022/06/16 11:10:27;;;;;;;3.75;1.05;;;;;;;23.22;34.62;100406.50;1708925;83;21341;-43
2022/06/16 11:13:16;;;;;;;1.42;0.80;;;;;;;23.28;34.96;100406.19;1649128;87;21154;-43
2022/06/16 11:15:58;;;;;;;3.65;0.82;;;;;;;23.35;35.83;100396.92;1653983;87;21634;-43
2022/06/16 11:18:44;;;;;;;4.05;0.82;;;;;;;23.44;35.32;100399.59;1653464;87;21053;-48
2022/06/16 11:21:44;;;;;;;2.08;0.98;;;;;;;23.53;35.80;100395.58;1645937;86;21079;-48
2022/06/16 11:31:17;;;;;;;5.25;0.80;;;;;;;24.10;34.29;100393.45;1590103;90;21158;-43
2022/06/16 11:37:00;;;;;;;3.42;0.70;;;;;;;24.20;33.28;100393.83;1583709;90;21181;-48
2022/06/16 11:39:56;;;;;;;3.12;0.80;;;;;;;24.20;32.51;100395.16;1583634;90;21181;-42
2022/06/16 11:42:53;;;;;;;2.37;1.05;;;;;;;24.18;33.27;100389.91;1576601;90;21049;-47
2022/06/16 11:45:46;;;;;;;0.70;0.70;;;;;;;24.25;32.48;100389.09;1575897;90;21108;-49
2022/06/16 11:48:28;;;;;;;0.68;0.57;;;;;;;24.31;32.01;100376.73;1582934;90;21172;-44
2022/06/16 11:51:20;;;;;;;2.83;0.85;;;;;;;24.31;32.01;100376.73;1582041;89;21470;-48
2022/06/16 11:54:05;;;;;;;0.82;0.80;;;;;;;24.45;32.18;100374.64;1605753;89;21120;-45
2022/06/16 11:56:57;;;;;;;2.45;0.82;;;;;;;24.45;32.18;100374.64;1576030;91;21746;-45
2022/06/16 11:59:54;;;;;;;3.45;1.12;;;;;;;24.47;31.89;100377.63;1574041;90;21179;-48
2022/06/16 12:02:57;;;;;;;6.75;0.90;;;;;;;24.52;32.45;100380.88;1596528;90;21025;-43
2022/06/16 12:05:36;;;;;;;1.80;0.88;;;;;;;24.53;32.78;100373.75;1596487;90;21104;-49
2022/06/16 12:08:25;;;;;;;1.92;0.70;;;;;;;24.54;31.55;100369.64;1588166;88;21530;-43
2022/06/16 12:11:03;;;;;;;2.00;0.70;;;;;;;24.71;33.03;100378.05;1614889;88;21097;-43
2022/06/16 12:13:52;;;;;;;2.37;0.90;;;;;;;24.93;31.30;100374.97;1622217;87;21083;-43
2022/06/16 12:16:46;;;;;;;1.12;0.60;;;;;;;24.93;31.30;100374.97;1651594;86;20994;-47
2022/06/16 12:20:02;;;;;;;2.50;0.82;;;;;;;25.04;30.96;100373.87;1607965;89;21540;-43
